Rechercher aéroport 
image banner adimage banner adimage banner ad
image banner ad

3PN4 - Jameson Memorial Hospital

Situé à New Castle, United States

ICAO - 3PN4, IATA -

Données fournies par Airmate  

Information générale

Coordonnées: N41°0'46" W80°21'6"
Élévation : 954 feet MSL.
Variation magnétique : -09° East
Voir autres Aéroports à Pennsylvania

Données opérationnelles

Special qualification required
Heure actuelle UTC:
Heure actuelle locale:
Météo à : KUCP - New Castle Muni ( 5 km )
METAR: KUCP 131856Z AUTO 25004KT 10SM SCT050 SCT065 SCT075 29/19 A2985 RMK AO2 SLP115 T02890189
Voir NOTAMs / SUP AIP / TFR affectant cet aéroport [VIEW]
Fréquences de communication: [VIEW]

Pistes:

Coordonnées de l'aéroport

Adresse: New Castle United States

Vue satellite de 3PN4